Time;durP1;ratioP1;P1;durP2;ratioP2;P2;SDS_P1;SDS_P2;PMS_P1;PMS_P2;Temp;Humidity;BMP_temperature;BMP_pressure;BME280_temperature;BME280_humidity;BME280_pressure;Samples;Min_cycle;Max_cycle;Signal;HPM_P1;HPM_P2
2023/03/07 00:00:08;;;;;;;0.93;0.30;;;;;;;-4.27;58.55;99835.56;4960339;28;20051;-68
2023/03/07 00:02:35;;;;;;;1.83;0.28;;;;;;;-4.30;58.74;99838.03;4958937;28;20141;-68
2023/03/07 00:05:02;;;;;;;1.17;0.20;;;;;;;-4.32;58.89;99838.03;4957642;28;20069;-68
2023/03/07 00:07:30;;;;;;;0.45;0.30;;;;;;;-4.40;58.84;99831.00;4959528;28;20434;-68
2023/03/07 00:09:57;;;;;;;2.15;0.40;;;;;;;-4.40;59.24;99834.41;4950078;28;20051;-68
2023/03/07 00:12:25;;;;;;;2.50;0.30;;;;;;;-4.44;59.38;99832.59;4958649;28;20383;-68
2023/03/07 00:14:53;;;;;;;2.25;0.40;;;;;;;-4.47;58.91;99829.94;4958937;28;20055;-69
2023/03/07 00:17:20;;;;;;;3.35;0.40;;;;;;;-4.48;59.20;99828.22;4959448;28;20430;-68
2023/03/07 00:19:46;;;;;;;1.02;0.40;;;;;;;-4.52;59.20;99829.00;4958826;28;20050;-68
2023/03/07 00:22:13;;;;;;;2.25;0.30;;;;;;;-4.54;58.84;99830.63;4958838;28;20051;-68
2023/03/07 00:24:40;;;;;;;0.77;0.30;;;;;;;-4.57;58.92;99840.75;4956937;28;20062;-69
2023/03/07 00:27:07;;;;;;;0.45;0.30;;;;;;;-4.61;59.07;99831.25;4959181;28;20054;-68
2023/03/07 00:29:34;;;;;;;0.82;0.30;;;;;;;-4.64;59.68;99834.63;4957919;28;20590;-68
2023/03/07 00:32:02;;;;;;;0.50;0.20;;;;;;;-4.73;58.98;99810.56;4954400;28;20051;-68
2023/03/07 00:34:29;;;;;;;0.85;0.30;;;;;;;-4.73;59.50;99810.56;4958248;28;20507;-68
2023/03/07 00:36:56;;;;;;;0.98;0.30;;;;;;;-4.70;59.50;99820.81;4959720;28;20062;-68
2023/03/07 00:39:23;;;;;;;0.47;0.30;;;;;;;-4.75;59.07;99815.63;4955260;28;20047;-68
2023/03/07 00:41:50;;;;;;;0.45;0.35;;;;;;;-4.79;59.66;99808.69;4958791;28;20058;-69
2023/03/07 00:44:16;;;;;;;2.03;0.50;;;;;;;-4.81;59.35;99806.13;4955690;28;20495;-68
2023/03/07 00:46:43;;;;;;;1.95;0.30;;;;;;;-4.86;59.45;99805.13;4957657;28;20062;-68
2023/03/07 00:49:11;;;;;;;1.00;0.50;;;;;;;-4.88;59.64;99799.13;4954190;28;20065;-68
2023/03/07 00:51:38;;;;;;;0.77;0.25;;;;;;;-4.89;59.38;99804.19;4960166;28;20054;-68
2023/03/07 00:54:05;;;;;;;1.80;0.30;;;;;;;-4.92;59.49;99810.06;4958304;28;20051;-68
2023/03/07 00:56:32;;;;;;;0.80;0.30;;;;;;;-4.95;59.63;99804.88;4959047;28;20066;-69
2023/03/07 00:58:59;;;;;;;1.20;0.32;;;;;;;-5.00;59.65;99798.78;4958640;28;20058;-68
2023/03/07 01:01:26;;;;;;;1.33;0.52;;;;;;;-4.99;59.29;99808.16;4957943;28;20051;-69
2023/03/07 01:03:53;;;;;;;1.45;0.30;;;;;;;-5.02;59.30;99802.97;4956826;28;20434;-68
2023/03/07 01:06:23;;;;;;;1.00;0.30;;;;;;;-5.03;59.27;99801.25;4966661;28;20058;-68
2023/03/07 01:08:50;;;;;;;1.10;0.30;;;;;;;-5.07;59.16;99792.63;4968302;28;20046;-69
2023/03/07 01:11:17;;;;;;;1.33;0.25;;;;;;;-5.06;59.87;99801.16;4964778;28;20046;-68
2023/03/07 01:13:44;;;;;;;1.70;0.30;;;;;;;-5.08;59.86;99792.63;4967622;28;20059;-69
2023/03/07 01:16:15;;;;;;;1.08;0.50;;;;;;;-5.10;59.13;99794.25;4969523;28;20055;-69
2023/03/07 01:18:43;;;;;;;0.30;0.20;;;;;;;-5.13;59.78;99795.00;4968206;28;20403;-68
2023/03/07 01:21:14;;;;;;;2.03;0.30;;;;;;;-5.14;59.51;99787.34;4969089;28;20126;-68
2023/03/07 01:23:43;;;;;;;0.90;0.40;;;;;;;-5.18;59.61;99783.81;4966808;28;20105;-68
2023/03/07 01:26:12;;;;;;;2.05;0.50;;;;;;;-5.20;59.99;99783.81;4968435;28;20057;-68
2023/03/07 01:28:39;;;;;;;2.95;0.30;;;;;;;-5.25;59.94;99776.84;4964751;28;20067;-68
2023/03/07 01:31:06;;;;;;;1.63;0.30;;;;;;;-5.40;59.59;99746.72;4965735;28;20066;-68
2023/03/07 01:33:33;;;;;;;2.92;0.50;;;;;;;-5.25;59.35;99772.63;4967299;28;20515;-68
2023/03/07 01:36:00;;;;;;;3.22;0.40;;;;;;;-5.30;60.03;99763.97;4968232;28;20080;-68
2023/03/07 01:38:32;;;;;;;1.25;0.30;;;;;;;-5.27;60.17;99768.28;4967237;28;20047;-68
2023/03/07 01:41:01;;;;;;;1.10;0.30;;;;;;;-5.30;59.74;99766.53;4968781;28;20057;-68
2023/03/07 01:43:30;;;;;;;0.40;0.30;;;;;;;-5.31;60.10;99753.78;4966078;28;20038;-69
2023/03/07 01:46:43;;;;;;;2.63;0.52;;;;;;;-5.34;60.08;99753.69;4968090;28;20046;-68
2023/03/07 01:49:16;;;;;;;1.85;0.40;;;;;;;-5.37;59.84;99759.53;4963040;28;20050;-68
2023/03/07 01:51:46;;;;;;;3.10;0.50;;;;;;;-5.40;60.09;99758.59;4966971;28;20113;-69
2023/03/07 01:54:17;;;;;;;1.17;0.30;;;;;;;-5.43;60.04;99747.50;4968128;28;20043;-68
2023/03/07 01:56:47;;;;;;;5.40;0.40;;;;;;;-5.45;59.45;99751.69;4966755;28;20522;-68
2023/03/07 01:59:20;;;;;;;6.93;0.73;;;;;;;-5.49;60.12;99744.78;4968498;28;20043;-69
2023/03/07 02:01:47;;;;;;;2.55;0.25;;;;;;;-5.50;59.99;99745.59;4968751;28;20399;-68
2023/03/07 02:04:18;;;;;;;2.15;0.40;;;;;;;-5.51;59.72;99745.56;4967022;28;20054;-68
2023/03/07 02:06:45;;;;;;;0.57;0.30;;;;;;;-5.59;59.47;99734.28;4965989;28;20050;-69
2023/03/07 02:09:17;;;;;;;1.02;0.45;;;;;;;-5.55;59.67;99751.34;4968515;28;20082;-68
2023/03/07 02:11:47;;;;;;;1.45;0.30;;;;;;;-5.57;59.60;99750.47;4965801;28;20050;-69
2023/03/07 02:14:14;;;;;;;1.92;0.20;;;;;;;-5.58;59.94;99753.81;4966691;28;20058;-68
2023/03/07 02:16:42;;;;;;;8.52;0.40;;;;;;;-5.61;60.08;99751.19;4961900;28;20057;-69
2023/03/07 02:19:28;;;;;;;0.60;0.30;;;;;;;-5.64;59.84;99759.56;4967855;28;20055;-68
2023/03/07 02:22:03;;;;;;;3.30;0.30;;;;;;;-5.67;59.72;99752.72;4969968;28;20049;-68
2023/03/07 02:24:38;;;;;;;3.35;0.30;;;;;;;-5.70;59.78;99746.69;4972154;28;20046;-69
2023/03/07 02:27:06;;;;;;;3.90;0.40;;;;;;;-5.72;59.65;99749.19;4969728;28;20458;-68
2023/03/07 02:29:33;;;;;;;1.25;0.28;;;;;;;-5.75;59.58;99741.47;4971332;28;20518;-68
2023/03/07 02:32:00;;;;;;;0.40;0.30;;;;;;;-5.77;59.60;99737.16;4965712;28;20050;-68
2023/03/07 02:34:30;;;;;;;3.80;0.38;;;;;;;-5.81;60.13;99731.09;4970853;28;20057;-68
2023/03/07 02:37:01;;;;;;;1.10;0.30;;;;;;;-5.83;59.92;99734.41;4966565;28;20047;-68
2023/03/07 02:39:29;;;;;;;3.05;0.40;;;;;;;-5.84;60.00;99731.00;4971893;28;20054;-68
2023/03/07 02:41:58;;;;;;;1.17;0.30;;;;;;;-5.87;60.26;99730.91;4971684;28;20564;-68
2023/03/07 02:44:26;;;;;;;3.35;0.40;;;;;;;-5.91;60.44;99714.69;4970340;28;20054;-68
2023/03/07 02:46:53;;;;;;;1.75;0.35;;;;;;;-5.90;59.90;99720.66;4971213;28;20388;-67
2023/03/07 02:49:20;;;;;;;1.50;0.40;;;;;;;-5.90;60.25;99721.50;4970864;28;20057;-69
2023/03/07 02:51:47;;;;;;;2.38;0.40;;;;;;;-5.92;59.62;99718.06;4969360;28;20131;-68
2023/03/07 02:54:14;;;;;;;0.95;0.30;;;;;;;-5.92;59.94;99712.09;4971210;28;20078;-68
2023/03/07 02:56:41;;;;;;;4.90;0.38;;;;;;;-5.94;60.21;99708.69;4970123;28;20047;-69
2023/03/07 02:59:08;;;;;;;0.80;0.43;;;;;;;-5.96;60.25;99703.56;4969363;28;20047;-68
2023/03/07 03:01:36;;;;;;;1.25;0.20;;;;;;;-5.98;59.81;99704.31;4969961;28;20047;-68
2023/03/07 03:04:03;;;;;;;0.65;0.38;;;;;;;-6.00;59.95;99696.66;4970782;28;20043;-68
2023/03/07 03:06:30;;;;;;;0.93;0.40;;;;;;;-6.00;59.79;99706.84;4967127;28;20058;-68
2023/03/07 03:08:57;;;;;;;3.53;0.25;;;;;;;-6.02;60.58;99699.97;4970870;28;20802;-68
2023/03/07 03:11:24;;;;;;;2.88;0.30;;;;;;;-6.05;59.62;99697.34;4970244;28;20050;-68
2023/03/07 03:13:51;;;;;;;2.95;0.30;;;;;;;-6.08;60.55;99700.66;4968120;28;20065;-74
2023/03/07 03:16:18;;;;;;;1.80;0.40;;;;;;;-6.11;59.86;99696.31;4971212;28;20054;-73
2023/03/07 03:18:46;;;;;;;2.10;0.30;;;;;;;-6.12;59.65;99693.72;4969300;28;20407;-73
2023/03/07 03:21:13;;;;;;;3.85;0.30;;;;;;;-6.14;60.42;99693.69;4969382;28;20549;-74
2023/03/07 03:23:41;;;;;;;0.98;0.40;;;;;;;-6.16;59.83;99690.22;4971387;28;20521;-74
2023/03/07 03:26:10;;;;;;;0.90;0.30;;;;;;;-6.18;59.97;99686.78;4970370;28;20434;-74
2023/03/07 03:28:38;;;;;;;3.67;0.30;;;;;;;-6.20;60.22;99696.03;4968055;28;20074;-74
2023/03/07 03:31:09;;;;;;;0.68;0.32;;;;;;;-6.21;60.05;99683.28;4969584;28;20055;-73
2023/03/07 03:33:36;;;;;;;3.90;0.40;;;;;;;-6.22;59.96;99684.97;4963030;28;20062;-74
2023/03/07 03:36:10;;;;;;;1.13;0.30;;;;;;;-6.25;60.63;99684.88;4971005;28;20053;-75
2023/03/07 03:38:37;;;;;;;2.63;0.45;;;;;;;-6.26;59.83;99680.63;4970570;28;20059;-74
2023/03/07 03:41:05;;;;;;;2.05;0.50;;;;;;;-6.28;60.20;99679.69;4970206;28;20527;-74
2023/03/07 03:43:33;;;;;;;1.65;0.40;;;;;;;-6.29;60.22;99680.50;4969812;28;20051;-75
2023/03/07 03:46:00;;;;;;;0.90;0.20;;;;;;;-6.29;59.80;99677.94;4970137;28;20066;-74
2023/03/07 03:48:28;;;;;;;0.82;0.32;;;;;;;-6.31;60.07;99679.59;4970891;28;20078;-74
2023/03/07 03:51:01;;;;;;;3.45;0.30;;;;;;;-6.32;59.79;99674.47;4967458;28;20051;-75
2023/03/07 03:53:30;;;;;;;1.52;0.40;;;;;;;-6.36;60.21;99673.50;4967969;28;20057;-75
2023/03/07 03:56:04;;;;;;;2.08;0.32;;;;;;;-6.37;60.00;99669.25;4965317;28;20055;-74
2023/03/07 03:58:32;;;;;;;1.40;0.40;;;;;;;-6.39;59.98;99670.88;4967786;28;20049;-74
2023/03/07 04:01:04;;;;;;;0.75;0.30;;;;;;;-6.48;60.17;99660.41;4969112;28;20054;-75
2023/03/07 04:03:31;;;;;;;0.73;0.30;;;;;;;-6.41;60.47;99670.81;4966605;28;20061;-74
2023/03/07 04:06:01;;;;;;;1.25;0.30;;;;;;;-6.44;60.04;99670.72;4967043;28;20495;-74
2023/03/07 04:08:30;;;;;;;0.77;0.30;;;;;;;-6.44;60.20;99674.94;4971543;28;20054;-75
2023/03/07 04:10:57;;;;;;;1.33;0.35;;;;;;;-6.45;60.34;99668.13;4968726;28;20057;-74
2023/03/07 04:13:24;;;;;;;3.22;0.35;;;;;;;-6.45;60.83;99660.53;4969879;28;20068;-74
2023/03/07 04:15:53;;;;;;;1.50;0.40;;;;;;;-6.45;60.76;99665.59;4968917;28;20038;-74
2023/03/07 04:18:20;;;;;;;5.68;0.30;;;;;;;-6.47;60.73;99659.59;4970577;28;20051;-74
2023/03/07 04:20:48;;;;;;;4.70;0.30;;;;;;;-6.45;60.93;99668.13;4969005;28;20046;-75
2023/03/07 04:23:15;;;;;;;0.75;0.43;;;;;;;-6.49;60.67;99657.00;4971053;28;20051;-73
2023/03/07 04:25:48;;;;;;;0.63;0.22;;;;;;;-6.50;60.47;99656.97;4970667;28;20057;-74
2023/03/07 04:28:15;;;;;;;0.70;0.30;;;;;;;-6.50;60.01;99660.34;4969989;28;20086;-73
2023/03/07 04:30:42;;;;;;;0.68;0.40;;;;;;;-6.50;60.01;99656.97;4967574;28;20415;-72
2023/03/07 04:33:09;;;;;;;4.32;0.57;;;;;;;-6.53;60.22;99655.19;4968381;28;20062;-73
2023/03/07 04:35:36;;;;;;;1.50;0.40;;;;;;;-6.53;60.36;99655.19;4969124;28;20050;-75
2023/03/07 04:38:03;;;;;;;1.00;0.40;;;;;;;-6.56;60.60;99655.94;4971283;28;20134;-75
2023/03/07 04:40:30;;;;;;;0.90;0.30;;;;;;;-6.58;60.38;99647.41;4966266;28;20057;-74
2023/03/07 04:42:59;;;;;;;1.00;0.30;;;;;;;-6.58;60.11;99652.47;4971405;28;20066;-74
2023/03/07 04:45:26;;;;;;;0.98;0.32;;;;;;;-6.59;60.40;99653.31;4969110;28;20065;-74
2023/03/07 04:47:53;;;;;;;0.40;0.30;;;;;;;-6.59;60.63;99649.91;4969026;28;20050;-73
2023/03/07 04:50:20;;;;;;;2.60;0.50;;;;;;;-6.61;60.75;99652.38;4969875;28;20059;-74
2023/03/07 04:52:49;;;;;;;1.45;0.38;;;;;;;-6.61;60.11;99641.38;4969590;28;20526;-72
2023/03/07 04:55:16;;;;;;;1.08;0.30;;;;;;;-6.62;60.75;99644.75;4968492;28;20070;-73
2023/03/07 04:57:43;;;;;;;1.17;0.30;;;;;;;-6.63;60.85;99637.91;4969024;28;20187;-73
2023/03/07 05:00:13;;;;;;;0.82;0.30;;;;;;;-6.64;60.95;99636.19;4967736;28;20058;-73
2023/03/07 05:02:40;;;;;;;0.93;0.40;;;;;;;-6.64;60.19;99638.72;4968045;28;20046;-72
2023/03/07 05:05:07;;;;;;;0.60;0.30;;;;;;;-6.64;60.30;99636.19;4968482;28;20053;-73
2023/03/07 05:07:34;;;;;;;1.70;0.30;;;;;;;-6.64;60.11;99641.28;4967838;28;20102;-72
2023/03/07 05:10:01;;;;;;;3.22;0.60;;;;;;;-6.66;60.91;99633.63;4970077;28;20627;-73
2023/03/07 05:12:28;;;;;;;1.25;0.57;;;;;;;-6.66;60.72;99630.19;4962983;28;20119;-74
2023/03/07 05:14:55;;;;;;;1.98;0.40;;;;;;;-6.65;60.85;99631.94;4966770;28;20047;-74
2023/03/07 05:17:24;;;;;;;0.60;0.30;;;;;;;-6.68;60.66;99622.53;4969072;28;20194;-74
2023/03/07 05:19:51;;;;;;;2.63;0.50;;;;;;;-6.67;60.23;99620.88;4963598;28;20051;-75
2023/03/07 05:22:18;;;;;;;3.60;0.30;;;;;;;-6.71;61.08;99624.13;4968885;28;20054;-74
2023/03/07 05:24:45;;;;;;;1.67;0.40;;;;;;;-6.70;60.50;99624.16;4965939;28;20109;-74
2023/03/07 05:27:12;;;;;;;2.25;0.20;;;;;;;-6.72;61.04;99618.16;4970474;28;20050;-74
2023/03/07 05:29:39;;;;;;;1.63;0.50;;;;;;;-6.72;60.85;99630.88;4967773;28;20051;-73
2023/03/07 05:32:06;;;;;;;0.68;0.30;;;;;;;-6.73;60.83;99631.69;4968289;28;20057;-74
2023/03/07 05:34:36;;;;;;;2.72;0.40;;;;;;;-6.73;60.35;99624.06;4968191;28;20047;-74
2023/03/07 05:37:04;;;;;;;1.73;0.30;;;;;;;-6.73;60.32;99626.59;4965959;28;20051;-73
2023/03/07 05:39:30;;;;;;;1.17;0.40;;;;;;;-6.73;60.83;99626.59;4969420;28;20047;-73
2023/03/07 05:41:57;;;;;;;2.47;0.30;;;;;;;-6.78;61.10;99612.91;4970341;28;20105;-74
2023/03/07 05:44:24;;;;;;;1.50;0.50;;;;;;;-6.72;61.20;99623.25;4968864;28;20042;-74
2023/03/07 05:46:51;;;;;;;3.63;0.40;;;;;;;-6.73;60.17;99621.53;4966586;28;20586;-74
2023/03/07 05:49:18;;;;;;;3.90;0.60;;;;;;;-6.73;60.88;99620.69;4968526;28;20403;-74
2023/03/07 05:51:47;;;;;;;1.77;0.50;;;;;;;-6.78;60.81;99610.34;4967965;28;20054;-74
2023/03/07 05:54:13;;;;;;;4.30;0.50;;;;;;;-6.75;60.91;99618.06;4970184;28;20051;-74
2023/03/07 05:56:40;;;;;;;1.10;0.40;;;;;;;-6.77;61.26;99612.09;4970074;28;20047;-74
2023/03/07 05:59:10;;;;;;;3.05;0.50;;;;;;;-6.82;60.54;99606.00;4973206;28;21037;-74
2023/03/07 06:01:37;;;;;;;1.17;0.43;;;;;;;-6.81;61.07;99608.56;4969708;28;20050;-74
2023/03/07 06:04:04;;;;;;;1.63;0.38;;;;;;;-6.79;61.04;99616.25;4973472;28;20058;-74
2023/03/07 06:06:31;;;;;;;5.97;0.60;;;;;;;-6.80;61.26;99609.47;4973257;28;20702;-73
2023/03/07 06:08:59;;;;;;;0.90;0.40;;;;;;;-6.82;60.81;99606.88;4973857;28;20557;-72
2023/03/07 06:11:26;;;;;;;1.60;0.40;;;;;;;-6.80;61.13;99609.47;4972492;28;20047;-72
2023/03/07 06:13:54;;;;;;;1.80;0.40;;;;;;;-6.77;61.36;99604.47;4972018;28;20051;-74
2023/03/07 06:16:21;;;;;;;2.53;0.57;;;;;;;-6.79;60.97;99595.94;4970831;28;20043;-74
2023/03/07 06:18:49;;;;;;;1.70;0.35;;;;;;;-6.74;61.22;99591.00;4973234;28;20053;-74
2023/03/07 06:21:18;;;;;;;1.73;0.50;;;;;;;-6.72;61.10;99591.91;4971829;28;20129;-73
2023/03/07 06:23:45;;;;;;;2.78;0.30;;;;;;;-6.71;61.33;99597.06;4973746;28;20047;-74
2023/03/07 06:26:13;;;;;;;2.03;0.73;;;;;;;-6.67;60.89;99592.94;4971040;28;20039;-74
2023/03/07 06:28:41;;;;;;;1.25;0.60;;;;;;;-6.64;61.08;99593.03;4972468;28;20483;-74
2023/03/07 06:31:09;;;;;;;1.45;0.50;;;;;;;-6.62;61.37;99589.72;4972587;28;20417;-74
2023/03/07 06:33:36;;;;;;;0.90;0.52;;;;;;;-6.60;61.53;99582.16;4973530;28;20050;-74
2023/03/07 06:36:05;;;;;;;2.92;0.50;;;;;;;-6.57;60.92;99584.78;4969462;28;20046;-74
2023/03/07 06:38:32;;;;;;;4.10;0.40;;;;;;;-6.61;61.35;99571.09;4970973;28;20050;-75
2023/03/07 06:40:59;;;;;;;1.70;0.57;;;;;;;-6.51;60.88;99587.50;4972882;28;20051;-74
2023/03/07 06:43:28;;;;;;;1.33;0.57;;;;;;;-6.47;61.15;99585.91;4973046;28;20053;-74
2023/03/07 06:45:55;;;;;;;2.15;0.75;;;;;;;-6.46;60.97;99580.91;4972603;28;20047;-74
2023/03/07 06:48:22;;;;;;;5.38;0.88;;;;;;;-6.41;61.06;99588.66;4972534;28;20050;-74
2023/03/07 06:50:49;;;;;;;3.92;0.80;;;;;;;-6.38;62.14;99589.59;4971885;28;20059;-73
2023/03/07 06:53:16;;;;;;;3.63;0.63;;;;;;;-6.37;61.34;99580.31;4970101;28;20051;-72
2023/03/07 06:55:43;;;;;;;5.18;0.60;;;;;;;-6.28;61.88;99579.72;4969653;28;20078;-73
2023/03/07 06:58:10;;;;;;;3.65;0.93;;;;;;;-6.25;61.78;99580.66;4968981;28;20051;-72
2023/03/07 07:00:38;;;;;;;1.45;0.70;;;;;;;-6.23;61.86;99573.06;4970929;28;20065;-72
2023/03/07 07:03:05;;;;;;;2.25;0.77;;;;;;;-6.20;62.42;99568.97;4970627;28;20051;-72
2023/03/07 07:05:32;;;;;;;3.38;0.63;;;;;;;-6.16;61.64;99563.13;4970949;28;20054;-72
2023/03/07 07:07:59;;;;;;;3.28;0.50;;;;;;;-6.06;62.28;99569.38;4972024;28;20110;-72
2023/03/07 07:10:26;;;;;;;5.18;0.75;;;;;;;-6.00;62.41;99568.69;4970691;28;20061;-72
2023/03/07 07:12:55;;;;;;;1.63;0.90;;;;;;;-5.95;62.19;99567.09;4970078;28;20059;-73
2023/03/07 07:15:22;;;;;;;1.67;0.70;;;;;;;-5.90;62.67;99558.75;4949278;28;21222;-73
2023/03/07 07:17:50;;;;;;;6.72;5.68;;;;;;;-5.82;62.46;99558.13;4971185;28;20165;-73
2023/03/07 07:20:18;;;;;;;3.05;0.80;;;;;;;-5.79;63.13;99555.66;4970744;28;20074;-73
2023/03/07 07:22:45;;;;;;;2.72;1.77;;;;;;;-5.74;62.80;99546.47;4971384;28;20047;-74
2023/03/07 07:25:11;;;;;;;3.25;0.60;;;;;;;-5.72;62.83;99537.19;4970628;28;20098;-73
2023/03/07 07:27:39;;;;;;;2.53;0.60;;;;;;;-5.58;63.83;99546.03;4971934;28;20061;-74
2023/03/07 07:30:07;;;;;;;3.80;1.55;;;;;;;-5.51;63.05;99536.91;4967615;28;20047;-73
2023/03/07 07:32:34;;;;;;;0.50;0.25;;;;;;;-5.43;63.28;99541.38;4970273;28;20502;-73
2023/03/07 07:35:02;;;;;;;1.05;0.35;;;;;;;-5.33;63.42;99534.81;4968143;28;20050;-74
2023/03/07 07:37:29;;;;;;;2.75;0.20;;;;;;;-5.23;62.92;99529.16;4967333;28;20514;-73
2023/03/07 07:39:56;;;;;;;0.70;0.20;;;;;;;-5.09;63.96;99532.03;4969974;28;20562;-74
2023/03/07 07:42:23;;;;;;;0.30;0.13;;;;;;;-4.97;63.29;99523.81;4969718;28;20063;-74
2023/03/07 07:44:50;;;;;;;2.35;0.20;;;;;;;-4.84;63.41;99517.31;4970493;28;20053;-74
2023/03/07 07:47:17;;;;;;;1.23;0.20;;;;;;;-4.68;63.43;99521.09;4969708;28;20050;-75
2023/03/07 07:49:44;;;;;;;0.38;0.20;;;;;;;-4.53;63.27;99511.22;4971373;28;20053;-76
2023/03/07 07:52:12;;;;;;;0.73;0.25;;;;;;;-4.39;63.32;99509.81;4971144;28;20062;-76
2023/03/07 07:54:39;;;;;;;5.53;0.40;;;;;;;-4.24;63.90;99508.44;4970599;28;20050;-75
2023/03/07 07:57:06;;;;;;;5.13;0.40;;;;;;;-4.10;63.43;99507.00;4971811;28;20050;-76
2023/03/07 07:59:33;;;;;;;1.15;0.30;;;;;;;-3.98;63.67;99493.66;4971210;28;20094;-76
2023/03/07 08:02:00;;;;;;;1.38;0.30;;;;;;;-3.79;63.45;99495.72;4969063;28;20046;-76
2023/03/07 08:04:28;;;;;;;1.95;0.40;;;;;;;-3.63;63.90;99495.16;4972180;28;20059;-75
2023/03/07 08:06:55;;;;;;;1.85;0.20;;;;;;;-3.44;63.76;99501.47;4969742;28;20057;-75
2023/03/07 08:09:23;;;;;;;2.40;0.30;;;;;;;-3.30;63.74;99491.50;4971475;28;20046;-75
2023/03/07 08:11:50;;;;;;;1.60;0.20;;;;;;;-3.17;63.38;99492.53;4971335;28;20059;-74
2023/03/07 08:14:16;;;;;;;3.15;0.20;;;;;;;-3.01;63.34;99497.06;4971176;28;20073;-75
2023/03/07 08:16:43;;;;;;;1.30;0.30;;;;;;;-2.87;63.43;99488.75;4971575;28;20554;-76
2023/03/07 08:19:10;;;;;;;3.53;0.10;;;;;;;-2.75;63.35;99484.66;4969449;28;20061;-75
2023/03/07 08:21:37;;;;;;;1.60;0.30;;;;;;;-2.62;63.19;99479.72;4970774;28;20412;-76
2023/03/07 08:24:04;;;;;;;0.60;0.10;;;;;;;-2.52;63.31;99479.00;4971935;28;20070;-74
2023/03/07 08:26:33;;;;;;;2.78;0.22;;;;;;;-2.39;63.17;99482.56;4974688;28;20125;-76
2023/03/07 08:29:00;;;;;;;0.40;0.17;;;;;;;-2.28;63.19;99478.47;4971751;28;20699;-74
2023/03/07 08:31:27;;;;;;;1.17;0.20;;;;;;;-2.18;62.81;99480.31;4971156;28;20410;-76
2023/03/07 08:33:54;;;;;;;3.80;0.70;;;;;;;-2.13;62.78;99470.97;4971459;28;20042;-75
2023/03/07 08:36:21;;;;;;;0.40;0.10;;;;;;;-1.97;63.01;99476.25;4971784;28;20055;-76
2023/03/07 08:38:50;;;;;;;0.65;0.10;;;;;;;-1.88;62.66;99478.91;4970389;28;20391;-75
2023/03/07 08:41:18;;;;;;;1.65;0.10;;;;;;;-1.93;62.35;99455.00;4972894;28;20050;-78
2023/03/07 08:43:46;;;;;;;0.50;0.20;;;;;;;-1.90;62.32;99439.69;4972182;28;20585;-77
2023/03/07 08:46:13;;;;;;;0.30;0.10;;;;;;;-1.69;62.38;99454.38;4974025;28;20408;-78
2023/03/07 08:48:40;;;;;;;0.22;0.10;;;;;;;-1.60;61.87;99452.75;4972492;28;20053;-77
2023/03/07 08:51:09;;;;;;;2.90;0.10;;;;;;;-1.53;62.28;99450.28;4973072;28;20057;-76
2023/03/07 08:53:37;;;;;;;1.42;0.10;;;;;;;-1.46;62.07;99446.91;4970009;28;20491;-76
2023/03/07 08:56:07;;;;;;;0.77;0.20;;;;;;;-1.38;62.06;99440.16;4970880;28;20055;-74
2023/03/07 08:58:34;;;;;;;0.20;0.10;;;;;;;-1.33;62.17;99440.19;4968895;28;20057;-74
2023/03/07 09:01:02;;;;;;;1.13;0.10;;;;;;;-1.28;62.13;99431.69;4971128;28;20435;-75
2023/03/07 09:03:29;;;;;;;0.80;0.10;;;;;;;-1.22;61.65;99430.88;4969877;28;20439;-74
2023/03/07 09:05:56;;;;;;;0.08;0.08;;;;;;;-1.20;61.37;99424.91;4969364;28;20043;-76
2023/03/07 09:08:23;;;;;;;0.90;0.10;;;;;;;-1.18;61.62;99423.22;4970593;28;20051;-75
2023/03/07 09:10:50;;;;;;;0.70;0.45;;;;;;;-1.11;61.80;99430.94;4970876;28;20491;-76
2023/03/07 09:13:17;;;;;;;0.57;0.10;;;;;;;-1.14;61.55;99417.28;4971897;28;20050;-76
2023/03/07 09:15:44;;;;;;;0.65;0.30;;;;;;;-1.08;61.36;99426.72;4972982;28;20050;-76
2023/03/07 09:18:13;;;;;;;0.40;0.10;;;;;;;-1.11;61.43;99408.75;4971185;28;20047;-76
2023/03/07 09:20:40;;;;;;;1.02;0.13;;;;;;;-1.00;61.45;99419.91;4969416;28;20046;-76
2023/03/07 09:23:09;;;;;;;0.00;0.00;;;;;;;-0.98;61.28;99410.53;4971600;28;20495;-76
2023/03/07 09:25:38;;;;;;;0.85;0.10;;;;;;;-0.97;61.43;99408.81;4969943;28;20463;-75
2023/03/07 09:28:05;;;;;;;0.20;0.10;;;;;;;-0.88;61.34;99413.16;4970851;28;20129;-74
2023/03/07 09:30:32;;;;;;;0.13;0.00;;;;;;;-0.87;59.97;99405.47;4968676;28;20065;-76
2023/03/07 09:32:59;;;;;;;0.82;0.00;;;;;;;-0.85;60.36;99398.66;4968604;28;20061;-73
2023/03/07 09:35:27;;;;;;;0.00;0.00;;;;;;;-0.77;60.26;99407.25;4970224;28;20054;-76
2023/03/07 09:37:54;;;;;;;0.00;0.00;;;;;;;-0.73;59.49;99401.28;4970348;28;20053;-74
2023/03/07 09:40:25;;;;;;;0.30;0.00;;;;;;;-0.71;59.54;99391.06;4969641;28;20495;-73
2023/03/07 09:43:01;;;;;;;0.00;0.00;;;;;;;-0.65;59.60;99396.19;4969685;28;20050;-74
2023/03/07 09:45:59;;;;;;;3.15;0.00;;;;;;;-0.59;59.14;99392.81;4968358;28;20161;-75
2023/03/07 09:48:58;;;;;;;0.40;0.00;;;;;;;-0.53;59.29;99390.25;4969086;28;20138;-74
2023/03/07 09:51:36;;;;;;;0.10;0.00;;;;;;;-0.47;58.66;99395.41;4968091;28;20059;-74
2023/03/07 09:54:06;;;;;;;0.10;0.00;;;;;;;-0.43;58.56;99388.59;4970530;28;20077;-76
2023/03/07 09:56:42;;;;;;;0.00;0.00;;;;;;;-0.40;58.53;99378.31;4968137;28;20070;-75
2023/03/07 09:59:15;;;;;;;0.00;0.00;;;;;;;-0.37;58.51;99381.78;4968921;28;20065;-75
2023/03/07 10:01:44;;;;;;;0.20;0.00;;;;;;;-0.29;58.71;99377.50;4968879;28;20059;-77
2023/03/07 10:04:19;;;;;;;0.00;0.00;;;;;;;-0.25;57.97;99368.97;4966785;28;20529;-75
2023/03/07 10:06:53;;;;;;;1.35;0.00;;;;;;;-0.19;57.52;99368.13;4969949;28;20050;-75
2023/03/07 10:09:23;;;;;;;0.10;0.00;;;;;;;-0.21;58.04;99358.72;4970630;28;20498;-75
2023/03/07 10:12:10;;;;;;;0.63;0.00;;;;;;;-0.15;57.77;99358.72;4969493;28;20324;-74
2023/03/07 10:14:51;;;;;;;0.10;0.00;;;;;;;-0.15;57.01;99353.59;4969923;28;20565;-74
2023/03/07 10:17:29;;;;;;;0.10;0.00;;;;;;;-0.13;56.07;99350.19;4968756;28;20118;-74
2023/03/07 10:20:07;;;;;;;1.85;0.00;;;;;;;-0.20;56.28;99333.03;4969400;28;20117;-73
2023/03/07 10:22:43;;;;;;;0.70;0.00;;;;;;;-0.11;55.62;99342.50;4967871;28;20506;-75
2023/03/07 10:25:19;;;;;;;0.10;0.00;;;;;;;-0.09;55.79;99343.34;4969274;28;20053;-74
2023/03/07 10:27:47;;;;;;;0.47;0.00;;;;;;;-0.08;55.55;99335.66;4968878;28;20043;-75
2023/03/07 10:30:17;;;;;;;0.00;0.00;;;;;;;-0.08;54.74;99325.38;4969278;28;20046;-74
2023/03/07 10:32:46;;;;;;;0.00;0.00;;;;;;;-0.06;54.81;99321.13;4969417;28;20569;-76
2023/03/07 10:35:19;;;;;;;0.00;0.00;;;;;;;-0.03;55.38;99320.22;4969820;28;20062;-76
2023/03/07 10:37:50;;;;;;;0.45;0.00;;;;;;;-0.02;55.38;99317.69;4969944;28;20117;-75
2023/03/07 10:40:23;;;;;;;1.02;0.10;;;;;;;0.01;55.11;99319.41;4969519;28;20042;-76
2023/03/07 10:42:50;;;;;;;0.00;0.00;;;;;;;-0.05;55.30;99304.00;4972764;28;20082;-74
2023/03/07 10:45:17;;;;;;;0.10;0.00;;;;;;;0.05;54.72;99310.84;4974480;28;20474;-76
2023/03/07 10:47:44;;;;;;;0.05;0.00;;;;;;;0.06;54.51;99312.56;4975819;28;20495;-78
2023/03/07 10:50:27;;;;;;;0.00;0.00;;;;;;;0.09;54.39;99302.28;4977449;28;20059;-78
2023/03/07 10:52:57;;;;;;;0.35;0.00;;;;;;;-0.04;53.64;99280.03;4976953;28;20047;-79
2023/03/07 10:55:36;;;;;;;1.65;0.00;;;;;;;0.11;53.26;99304.84;4981771;28;20114;-79
2023/03/07 10:58:14;;;;;;;0.00;0.00;;;;;;;0.10;53.88;99288.59;4975397;28;20046;-80
2023/03/07 11:00:43;;;;;;;0.00;0.00;;;;;;;0.01;53.91;99262.06;4974716;28;20537;-78
2023/03/07 11:03:23;;;;;;;0.17;0.00;;;;;;;0.14;53.69;99285.19;4974004;28;20098;-78
2023/03/07 11:05:50;;;;;;;0.10;0.00;;;;;;;0.16;53.56;99280.03;4975831;28;20053;-77
2023/03/07 11:08:28;;;;;;;0.00;0.00;;;;;;;0.18;53.09;99279.19;4974369;28;20043;-77
2023/03/07 11:10:55;;;;;;;0.03;0.00;;;;;;;0.18;53.42;99271.47;4975283;28;20050;-77
2023/03/07 11:13:23;;;;;;;0.22;0.22;;;;;;;0.21;53.17;99271.47;4975291;28;20084;-77
2023/03/07 11:15:51;;;;;;;0.70;0.00;;;;;;;0.24;52.46;99264.63;4975345;28;20047;-77
2023/03/07 11:18:31;;;;;;;0.70;0.00;;;;;;;0.23;53.04;99253.50;4974879;28;20051;-77
2023/03/07 11:20:59;;;;;;;0.10;0.00;;;;;;;0.26;52.46;99260.31;4975868;28;20053;-77
2023/03/07 11:23:29;;;;;;;0.00;0.00;;;;;;;0.26;52.12;99252.63;4975510;28;20049;-77
2023/03/07 11:25:58;;;;;;;0.30;0.00;;;;;;;0.27;51.75;99241.50;4976096;28;20093;-77
2023/03/07 11:28:31;;;;;;;0.00;0.00;;;;;;;0.21;51.47;99225.25;4976518;28;20050;-82
2023/03/07 11:31:11;;;;;;;0.00;0.00;;;;;;;0.29;51.81;99234.66;4975888;28;20039;-78
2023/03/07 11:33:50;;;;;;;0.10;0.10;;;;;;;0.17;51.52;99203.00;4972057;28;20049;-79
2023/03/07 11:36:21;;;;;;;0.00;0.00;;;;;;;0.30;52.14;99213.25;4976419;28;20882;-81
2023/03/07 11:38:59;;;;;;;0.40;0.00;;;;;;;0.30;51.61;99218.38;4975166;28;20047;-80
2023/03/07 11:41:29;;;;;;;0.08;0.00;;;;;;;0.27;51.69;99206.41;4975718;28;20053;-78